Mount Vernon, Ohio
Current Conditions -  °F | °C
As of 10:16 PM on Monday 26 Jan 2015 (Local Time) from K4I3 Reporting Station
Light Snow Light Snow  
Wind Chill: 16°   Ceiling: 1500
Heat Index: 16°   Visibility: 10mi
Dew Point: 12°   Wind: 3mph
Humidity: 86%   Direction: 10°N
Pressure: 29.91"   Gusts: NA
Location:  40.39°N, 82.48°W
Report Text: K4I3 270316Z AUTO 01003KT 10SM -SN OVC015 M09/M11 A2991 RMK AO2
Loading
Personal Weather Stations






























Interactive Weather Map New forecast layout! Learn more

10-Day Weather Forecast

Advertisements
Track Severe Weather on mobile